METAR Data
IDs: Format: Raw Decoded Include TAF

Data at: 0028 UTC 25 Apr 2019

METAR for:KAIO (Atlantic Muni, IA, US)
Text:KAIO 250015Z AUTO 21004KT 10SM CLR 22/02 A2976 RMK AO2
Temperature: 22.0°C ( 72°F)
Dewpoint: 2.0°C ( 36°F) [RH = 27%]
Pressure (altimeter):29.76 inches Hg (1007.9 mb)
Winds:from the SSW (210 degrees) at 5 MPH (4 knots; 2.1 m/s)
Visibility:10 or more sm (16+ km)
Ceiling:at least 12,000 feet AGL
Clouds:sky clear below 12,000 feet AGL
QC Flag:automated observation with no human augmentation